createdAt,value
2023-05-13T00:01:59.980Z,59.63
2023-05-13T00:04:27.043Z,59.56
2023-05-13T00:06:54.314Z,59.88
2023-05-13T00:09:21.429Z,61.04
2023-05-13T00:11:48.833Z,61.80
2023-05-13T00:14:16.006Z,62.24
2023-05-13T00:16:43.485Z,62.22
2023-05-13T00:19:10.902Z,60.72
2023-05-13T00:21:38.026Z,60.31
2023-05-13T00:24:05.911Z,60.02
2023-05-13T00:26:33.155Z,60.10
2023-05-13T00:29:00.576Z,60.79
2023-05-13T00:31:27.892Z,61.55
2023-05-13T00:33:55.000Z,61.83
2023-05-13T00:36:22.098Z,62.34
2023-05-13T00:38:49.323Z,62.17
2023-05-13T00:41:16.396Z,61.64
2023-05-13T00:43:45.152Z,60.89
2023-05-13T00:46:12.404Z,60.65
2023-05-13T00:48:39.633Z,60.76
2023-05-13T00:51:07.076Z,61.65
2023-05-13T00:53:34.096Z,62.03
2023-05-13T00:56:01.164Z,62.48
2023-05-13T00:58:28.315Z,62.94
2023-05-13T01:01:01.737Z,62.57
2023-05-13T01:03:35.444Z,61.23
2023-05-13T01:06:08.195Z,60.47
2023-05-13T01:09:01.167Z,60.60
2023-05-13T01:11:29.819Z,61.08
2023-05-13T01:14:04.126Z,61.37
2023-05-13T01:16:35.672Z,61.64
2023-05-13T01:19:07.569Z,62.19
2023-05-13T01:21:36.573Z,62.69
2023-05-13T01:24:03.893Z,62.65
2023-05-13T01:26:31.463Z,61.06
2023-05-13T01:28:58.724Z,60.94
2023-05-13T01:31:25.942Z,60.85
2023-05-13T01:33:54.014Z,61.07
2023-05-13T01:36:22.285Z,61.12
2023-05-13T01:38:49.569Z,61.58
2023-05-13T01:41:16.572Z,61.80
2023-05-13T01:43:43.808Z,62.14
2023-05-13T01:46:14.086Z,61.93
2023-05-13T01:48:41.586Z,59.50
2023-05-13T01:51:10.891Z,58.79
2023-05-13T01:53:38.634Z,58.95
2023-05-13T01:56:09.098Z,59.17
2023-05-13T01:58:36.898Z,59.44
2023-05-13T02:01:04.872Z,59.71
2023-05-13T02:03:32.054Z,60.05
2023-05-13T02:05:59.392Z,60.47
2023-05-13T02:08:27.823Z,61.50
2023-05-13T02:10:59.147Z,61.47
2023-05-13T02:13:28.542Z,60.27
2023-05-13T02:15:55.848Z,59.78
2023-05-13T02:18:23.331Z,59.70
2023-05-13T02:20:50.644Z,59.78
2023-05-13T02:23:18.038Z,60.16
2023-05-13T02:25:45.157Z,61.06
2023-05-13T02:28:14.014Z,61.59
2023-05-13T02:30:41.952Z,60.59
2023-05-13T02:33:09.676Z,61.33
2023-05-13T02:35:37.532Z,62.51
2023-05-13T02:38:05.392Z,61.71
2023-05-13T02:40:32.858Z,61.13
2023-05-13T02:43:00.134Z,61.14
2023-05-13T02:45:33.552Z,61.81
2023-05-13T02:48:01.082Z,62.30
2023-05-13T02:50:28.043Z,62.68
2023-05-13T02:52:55.628Z,63.06
2023-05-13T02:55:24.200Z,63.37
2023-05-13T02:57:51.343Z,63.53
2023-05-13T03:00:19.060Z,62.36
2023-05-13T03:02:47.060Z,61.22
2023-05-13T03:05:14.197Z,61.13
2023-05-13T03:07:42.533Z,61.71
2023-05-13T03:10:10.234Z,61.92
2023-05-13T03:12:37.812Z,62.44
2023-05-13T03:15:07.040Z,63.07
2023-05-13T03:17:34.477Z,63.21
2023-05-13T03:20:01.578Z,62.87
2023-05-13T03:22:28.681Z,61.53
2023-05-13T03:24:57.331Z,60.65
2023-05-13T03:27:26.313Z,61.08
2023-05-13T03:29:53.472Z,61.28
2023-05-13T03:32:20.959Z,61.46
2023-05-13T03:34:48.046Z,62.15
2023-05-13T03:37:16.662Z,62.17
2023-05-13T03:39:43.914Z,62.27
2023-05-13T03:42:11.018Z,62.55
2023-05-13T03:44:38.344Z,60.88
2023-05-13T03:47:06.083Z,60.36
2023-05-13T03:49:33.397Z,59.97
2023-05-13T03:52:00.603Z,59.87
2023-05-13T03:54:27.927Z,60.01
2023-05-13T03:56:55.063Z,60.58
2023-05-13T03:59:22.158Z,60.98
2023-05-13T04:01:49.338Z,61.03
2023-05-13T04:04:16.337Z,61.66
2023-05-13T04:06:43.511Z,61.89
2023-05-13T04:09:10.884Z,60.11
2023-05-13T04:11:37.992Z,59.53
2023-05-13T04:14:04.926Z,59.10
2023-05-13T04:16:32.226Z,58.36
2023-05-13T04:18:59.418Z,58.85
2023-05-13T04:21:27.800Z,60.13
2023-05-13T04:23:54.857Z,59.40
2023-05-13T04:26:22.916Z,59.51
2023-05-13T04:28:51.797Z,60.35
2023-05-13T04:31:19.205Z,61.23
2023-05-13T04:33:46.323Z,61.14
2023-05-13T04:36:15.081Z,59.36
2023-05-13T04:38:43.203Z,58.15
2023-05-13T04:41:10.215Z,57.52
2023-05-13T04:43:41.911Z,57.46
2023-05-13T04:46:09.180Z,58.04
2023-05-13T04:48:36.639Z,58.30
2023-05-13T04:51:04.182Z,58.73
2023-05-13T04:53:32.215Z,58.68
2023-05-13T04:56:02.009Z,58.06
2023-05-13T04:58:30.487Z,58.02
2023-05-13T05:00:57.645Z,58.12
2023-05-13T05:03:25.385Z,58.50
2023-05-13T05:05:52.706Z,58.66
2023-05-13T05:08:20.058Z,57.77
2023-05-13T05:10:48.870Z,55.83
2023-05-13T05:13:16.374Z,54.70
2023-05-13T05:15:44.222Z,55.05
2023-05-13T05:18:11.824Z,55.23
2023-05-13T05:20:39.701Z,54.01
2023-05-13T05:23:11.063Z,54.12
2023-05-13T05:25:38.660Z,54.22
2023-05-13T05:28:05.834Z,55.13
2023-05-13T05:30:40.097Z,53.86
2023-05-13T05:33:13.135Z,53.57
2023-05-13T05:35:41.689Z,53.78
2023-05-13T05:38:10.979Z,53.36
2023-05-13T05:40:44.262Z,53.21
2023-05-13T05:43:11.743Z,54.12
2023-05-13T05:45:39.031Z,54.09
2023-05-13T05:48:07.836Z,54.22
2023-05-13T05:50:35.065Z,54.44
2023-05-13T05:53:04.096Z,54.01
2023-05-13T05:55:33.739Z,54.04
2023-05-13T05:58:06.550Z,53.67
2023-05-13T06:00:36.835Z,53.50
2023-05-13T06:03:04.342Z,53.84
2023-05-13T06:05:31.749Z,53.77
2023-05-13T06:07:58.808Z,54.08
2023-05-13T06:10:25.994Z,53.19
2023-05-13T06:12:53.294Z,54.09
2023-05-13T06:15:20.900Z,54.77
2023-05-13T06:17:47.959Z,55.06
2023-05-13T06:20:15.022Z,54.62
2023-05-13T06:22:42.675Z,53.39
2023-05-13T06:25:10.086Z,54.04
2023-05-13T06:27:37.168Z,54.32
2023-05-13T06:30:04.715Z,54.19
2023-05-13T06:32:33.508Z,54.64
2023-05-13T06:35:00.618Z,54.32
2023-05-13T06:37:28.035Z,53.31
2023-05-13T06:39:55.517Z,51.20
2023-05-13T06:42:23.457Z,51.06
2023-05-13T06:44:58.057Z,50.35
2023-05-13T06:47:28.470Z,49.78
2023-05-13T06:49:55.933Z,48.14
2023-05-13T06:52:22.918Z,47.35
2023-05-13T06:54:50.047Z,46.35
2023-05-13T06:57:17.927Z,46.30
2023-05-13T06:59:45.226Z,45.58
2023-05-13T07:02:13.249Z,45.88
2023-05-13T07:04:40.539Z,45.83
2023-05-13T07:07:07.518Z,45.18
2023-05-13T07:09:35.323Z,43.93
2023-05-13T07:12:03.335Z,42.78
2023-05-13T07:14:30.527Z,42.91
2023-05-13T07:16:58.873Z,43.50
2023-05-13T07:19:26.161Z,42.21
2023-05-13T07:21:53.251Z,42.22
2023-05-13T07:24:20.364Z,42.76
2023-05-13T07:26:47.331Z,42.63
2023-05-13T07:29:14.499Z,42.52
2023-05-13T07:31:41.956Z,41.41
2023-05-13T07:34:09.047Z,41.48
2023-05-13T07:36:36.100Z,42.38
2023-05-13T07:39:03.362Z,39.84
2023-05-13T07:41:30.449Z,38.75
2023-05-13T07:43:57.616Z,38.13
2023-05-13T07:46:24.721Z,38.94
2023-05-13T07:48:51.859Z,35.05
2023-05-13T07:51:18.850Z,34.48
2023-05-13T07:53:47.127Z,32.70
2023-05-13T07:56:14.254Z,33.26
2023-05-13T07:58:41.337Z,32.52
2023-05-13T08:01:08.583Z,32.27
2023-05-13T08:03:36.842Z,31.00
2023-05-13T08:06:04.297Z,30.16
2023-05-13T08:08:31.868Z,31.54
2023-05-13T08:10:59.042Z,28.70
2023-05-13T08:13:28.205Z,29.49
2023-05-13T08:15:55.499Z,29.51
2023-05-13T08:18:22.827Z,27.86
2023-05-13T08:20:50.053Z,26.27
2023-05-13T08:23:17.258Z,25.39
2023-05-13T08:25:44.314Z,24.50
2023-05-13T08:28:11.329Z,27.08
2023-05-13T08:30:40.817Z,24.85
2023-05-13T08:33:08.593Z,25.16
2023-05-13T08:35:35.739Z,26.61
2023-05-13T08:38:05.468Z,25.01
2023-05-13T08:40:33.019Z,25.68
2023-05-13T08:43:01.705Z,23.89
2023-05-13T08:45:32.403Z,22.20
2023-05-13T08:48:02.788Z,23.96
2023-05-13T08:50:29.881Z,22.40
2023-05-13T08:52:58.422Z,24.94
2023-05-13T08:55:25.568Z,24.01
2023-05-13T08:57:53.126Z,24.09
2023-05-13T09:00:21.835Z,24.04
2023-05-13T09:02:50.394Z,24.43
2023-05-13T09:05:17.689Z,23.54
2023-05-13T09:07:44.865Z,23.80
2023-05-13T09:10:12.041Z,24.82
2023-05-13T09:12:41.906Z,23.66
2023-05-13T09:15:10.200Z,24.50
2023-05-13T09:17:39.814Z,24.44
2023-05-13T09:20:08.222Z,24.12
2023-05-13T09:22:35.298Z,24.47
2023-05-13T09:25:02.451Z,24.23
2023-05-13T09:27:38.278Z,23.82
2023-05-13T09:30:06.121Z,24.60
2023-05-13T09:32:33.878Z,24.76
2023-05-13T09:35:17.144Z,24.38
2023-05-13T09:37:47.913Z,23.71
2023-05-13T09:40:15.369Z,24.03
2023-05-13T09:42:45.706Z,24.76
2023-05-13T09:45:13.702Z,24.32
2023-05-13T09:47:41.210Z,23.99
2023-05-13T09:50:09.272Z,24.88
2023-05-13T09:52:36.964Z,25.44
2023-05-13T09:55:05.257Z,26.10
2023-05-13T09:57:32.926Z,26.90
2023-05-13T10:00:00.673Z,26.53
2023-05-13T10:02:28.230Z,26.65
2023-05-13T10:04:56.095Z,26.89
2023-05-13T10:07:25.683Z,27.12
2023-05-13T10:09:54.486Z,26.42
2023-05-13T10:12:24.303Z,26.81
2023-05-13T10:14:54.824Z,27.49
2023-05-13T10:18:12.299Z,27.47
2023-05-13T10:20:39.477Z,27.51
2023-05-13T10:23:06.795Z,27.61
2023-05-13T10:25:33.901Z,27.79
2023-05-13T10:28:00.976Z,26.96
2023-05-13T10:30:28.000Z,26.86
2023-05-13T10:32:55.204Z,27.07
2023-05-13T10:35:22.280Z,27.64
2023-05-13T10:38:08.724Z,26.42
2023-05-13T10:40:50.002Z,27.28
2023-05-13T10:43:30.269Z,27.43
2023-05-13T10:46:01.948Z,28.19
2023-05-13T10:48:43.779Z,28.06
2023-05-13T10:51:14.617Z,27.90
2023-05-13T10:53:47.022Z,27.08
2023-05-13T10:56:14.120Z,27.70
2023-05-13T10:58:41.217Z,28.50
2023-05-13T11:01:28.890Z,28.49
2023-05-13T11:04:03.114Z,29.85
2023-05-13T11:06:37.156Z,29.16
2023-05-13T11:09:08.202Z,28.18
2023-05-13T11:11:35.749Z,28.44
2023-05-13T11:14:17.019Z,28.29
2023-05-13T11:16:47.841Z,26.82
2023-05-13T11:19:21.699Z,27.14
2023-05-13T11:21:51.965Z,27.17
2023-05-13T11:24:19.592Z,25.61
2023-05-13T11:26:49.942Z,25.58
2023-05-13T11:29:33.628Z,26.21
2023-05-13T11:32:01.664Z,26.89
2023-05-13T11:34:29.460Z,26.23
2023-05-13T11:37:06.033Z,26.12
2023-05-13T11:39:33.281Z,26.07
2023-05-13T11:42:03.592Z,25.60
2023-05-13T11:44:31.168Z,24.74
2023-05-13T11:46:59.794Z,24.21
2023-05-13T11:49:35.883Z,24.67
2023-05-13T11:52:07.649Z,25.42
2023-05-13T11:54:48.971Z,25.02
2023-05-13T11:57:23.224Z,25.06
2023-05-13T12:00:01.145Z,25.05
2023-05-13T12:02:29.870Z,25.45
2023-05-13T12:05:00.221Z,25.14
2023-05-13T12:07:27.432Z,25.13
2023-05-13T12:09:56.750Z,25.33
2023-05-13T12:12:25.132Z,25.69
2023-05-13T12:14:53.007Z,25.79
2023-05-13T12:17:20.590Z,26.66
2023-05-13T12:20:11.119Z,26.17
2023-05-13T12:22:44.483Z,25.51
2023-05-13T12:25:46.978Z,25.54
2023-05-13T12:28:17.950Z,26.41
2023-05-13T12:31:00.609Z,28.14
2023-05-13T12:33:31.499Z,27.87
2023-05-13T12:36:21.762Z,27.94
2023-05-13T12:39:05.551Z,27.50
2023-05-13T12:41:37.249Z,27.87
2023-05-13T12:44:05.607Z,27.69
2023-05-13T12:46:32.982Z,27.22
2023-05-13T12:49:01.110Z,26.93
2023-05-13T12:51:28.413Z,27.24
2023-05-13T12:53:58.225Z,27.65
2023-05-13T12:56:26.060Z,27.33
2023-05-13T12:58:53.787Z,27.17
2023-05-13T13:01:20.961Z,27.28
2023-05-13T13:03:49.480Z,27.54
2023-05-13T13:06:17.410Z,27.98
2023-05-13T13:08:44.675Z,28.27
2023-05-13T13:11:15.110Z,28.03
2023-05-13T13:13:42.295Z,27.93
2023-05-13T13:16:09.631Z,27.94
2023-05-13T13:18:36.992Z,27.63
2023-05-13T13:21:05.470Z,28.17
2023-05-13T13:23:32.623Z,28.63
2023-05-13T13:25:59.801Z,27.82
2023-05-13T13:28:27.216Z,28.52
2023-05-13T13:30:54.476Z,28.58
2023-05-13T13:33:22.374Z,28.54
2023-05-13T13:35:49.587Z,28.80
2023-05-13T13:38:16.988Z,28.46
2023-05-13T13:40:44.058Z,28.71
2023-05-13T13:43:11.138Z,28.76
2023-05-13T13:45:38.983Z,28.49
2023-05-13T13:48:06.357Z,28.71
2023-05-13T13:50:34.092Z,29.41
2023-05-13T13:53:00.975Z,29.01
2023-05-13T13:55:27.958Z,28.65
2023-05-13T13:57:55.072Z,28.92
2023-05-13T14:00:22.191Z,29.03
2023-05-13T14:02:49.388Z,29.07
2023-05-13T14:05:16.823Z,28.92
2023-05-13T14:07:43.826Z,28.60
2023-05-13T14:10:11.354Z,28.27
2023-05-13T14:12:38.488Z,28.54
2023-05-13T14:15:06.644Z,28.79
2023-05-13T14:17:34.639Z,28.79
2023-05-13T14:20:01.861Z,28.97
2023-05-13T14:22:29.329Z,28.81
2023-05-13T14:24:56.308Z,28.76
2023-05-13T14:27:24.705Z,28.68
2023-05-13T14:29:52.089Z,28.23
2023-05-13T14:32:19.335Z,28.49
2023-05-13T14:34:46.366Z,28.62
2023-05-13T14:37:13.380Z,28.55
2023-05-13T14:39:40.737Z,28.50
2023-05-13T14:42:07.864Z,28.69
2023-05-13T14:44:35.030Z,28.85
2023-05-13T14:47:02.065Z,28.86
2023-05-13T14:49:29.327Z,28.91
2023-05-13T14:51:56.447Z,28.75
2023-05-13T14:54:23.433Z,28.64
2023-05-13T14:56:51.394Z,29.36
2023-05-13T14:59:18.686Z,29.32
2023-05-13T15:01:45.958Z,29.53
2023-05-13T15:04:13.065Z,29.34
2023-05-13T15:06:40.916Z,29.65
2023-05-13T15:09:08.649Z,29.49
2023-05-13T15:11:37.324Z,29.13
2023-05-13T15:14:04.562Z,29.72
2023-05-13T15:16:31.779Z,29.64
2023-05-13T15:18:58.852Z,28.98
2023-05-13T15:21:25.917Z,29.41
2023-05-13T15:23:52.912Z,29.47
2023-05-13T15:26:20.071Z,29.61
2023-05-13T15:28:47.137Z,29.36
2023-05-13T15:31:15.918Z,29.48
2023-05-13T15:33:45.119Z,29.89
2023-05-13T15:36:12.568Z,30.22
2023-05-13T15:38:39.852Z,30.29
2023-05-13T15:41:07.041Z,30.27
2023-05-13T15:43:34.609Z,30.22
2023-05-13T15:46:01.887Z,30.00
2023-05-13T15:48:29.224Z,29.97
2023-05-13T15:50:56.221Z,30.51
2023-05-13T15:53:23.913Z,30.77
2023-05-13T15:55:51.460Z,30.38
2023-05-13T15:58:20.310Z,30.14
2023-05-13T16:00:47.601Z,30.24
2023-05-13T16:03:15.485Z,30.57
2023-05-13T16:05:42.592Z,30.67
2023-05-13T16:08:09.912Z,30.74
2023-05-13T16:10:37.814Z,30.93
2023-05-13T16:13:05.396Z,31.10
2023-05-13T16:15:32.378Z,31.20
2023-05-13T16:17:59.445Z,31.31
2023-05-13T16:20:26.895Z,31.66
2023-05-13T16:22:54.220Z,31.83
2023-05-13T16:25:23.033Z,31.84
2023-05-13T16:27:51.348Z,31.90
2023-05-13T16:30:18.486Z,32.10
2023-05-13T16:32:49.500Z,32.13
2023-05-13T16:35:20.117Z,32.53
2023-05-13T16:37:47.335Z,32.64
2023-05-13T16:40:14.599Z,32.64
2023-05-13T16:42:42.346Z,32.57
2023-05-13T16:45:09.689Z,32.60
2023-05-13T16:47:37.229Z,32.31
2023-05-13T16:50:04.730Z,32.12
2023-05-13T16:52:34.116Z,32.36
2023-05-13T16:55:01.064Z,32.59
2023-05-13T16:57:28.203Z,32.65
2023-05-13T16:59:55.452Z,32.53
2023-05-13T17:02:22.492Z,32.59
2023-05-13T17:04:49.764Z,32.72
2023-05-13T17:07:16.745Z,32.84
2023-05-13T17:09:44.789Z,32.93
2023-05-13T17:12:12.903Z,32.88
2023-05-13T17:14:40.111Z,33.40
2023-05-13T17:17:07.153Z,33.75
2023-05-13T17:19:34.391Z,34.60
2023-05-13T17:22:01.419Z,34.80
2023-05-13T17:24:29.792Z,34.96
2023-05-13T17:26:56.791Z,35.47
2023-05-13T17:29:25.752Z,35.47
2023-05-13T17:31:53.945Z,35.40
2023-05-13T17:34:21.040Z,35.83
2023-05-13T17:36:49.998Z,36.16
2023-05-13T17:39:17.250Z,37.79
2023-05-13T17:41:44.884Z,38.30
2023-05-13T17:44:12.053Z,38.36
2023-05-13T17:46:39.295Z,38.43
2023-05-13T17:49:06.727Z,38.34
2023-05-13T17:51:33.977Z,38.72
2023-05-13T17:54:00.965Z,38.99
2023-05-13T17:56:28.360Z,39.81
2023-05-13T17:58:55.544Z,40.28
2023-05-13T18:01:22.668Z,40.44
2023-05-13T18:03:49.649Z,41.30
2023-05-13T18:06:16.720Z,42.34
2023-05-13T18:08:43.936Z,43.46
2023-05-13T18:11:10.867Z,44.16
2023-05-13T18:13:38.141Z,44.27
2023-05-13T18:16:06.212Z,44.50
2023-05-13T18:18:33.521Z,44.20
2023-05-13T18:21:01.966Z,44.57
2023-05-13T18:23:28.986Z,44.91
2023-05-13T18:25:56.577Z,45.21
2023-05-13T18:28:24.920Z,44.17
2023-05-13T18:30:52.065Z,45.17
2023-05-13T18:33:20.115Z,44.87
2023-05-13T18:35:47.179Z,44.78
2023-05-13T18:38:14.168Z,45.43
2023-05-13T18:40:41.167Z,45.97
2023-05-13T18:43:08.115Z,46.09
2023-05-13T18:45:35.310Z,46.61
2023-05-13T18:48:02.467Z,47.21
2023-05-13T18:50:29.617Z,47.04
2023-05-13T18:52:56.827Z,48.13
2023-05-13T18:55:23.824Z,48.60
2023-05-13T18:57:50.976Z,47.92
2023-05-13T19:00:18.572Z,48.14
2023-05-13T19:02:46.123Z,48.56
2023-05-13T19:05:13.193Z,49.75
2023-05-13T19:07:40.531Z,49.90
2023-05-13T19:10:07.692Z,50.62
2023-05-13T19:12:34.896Z,51.12
2023-05-13T19:15:02.028Z,51.11
2023-05-13T19:17:30.433Z,51.27
2023-05-13T19:20:00.250Z,51.22
2023-05-13T19:22:27.513Z,51.82
2023-05-13T19:24:54.766Z,52.10
2023-05-13T19:27:22.244Z,52.55
2023-05-13T19:29:49.520Z,52.49
2023-05-13T19:32:16.866Z,53.22
2023-05-13T19:34:43.984Z,52.47
2023-05-13T19:37:11.090Z,53.45
2023-05-13T19:39:38.621Z,54.06
2023-05-13T19:42:05.979Z,54.67
2023-05-13T19:44:34.698Z,54.61
2023-05-13T19:47:01.922Z,54.21
2023-05-13T19:49:29.329Z,54.54
2023-05-13T19:51:57.559Z,54.33
2023-05-13T19:54:24.753Z,55.17
2023-05-13T19:56:51.775Z,55.18
2023-05-13T19:59:18.864Z,55.77
2023-05-13T20:01:46.102Z,55.94
2023-05-13T20:04:13.258Z,56.51
2023-05-13T20:06:40.610Z,56.57
2023-05-13T20:09:08.662Z,56.78
2023-05-13T20:11:36.323Z,56.71
2023-05-13T20:14:03.933Z,55.18
2023-05-13T20:16:30.929Z,54.52
2023-05-13T20:18:58.021Z,54.33
2023-05-13T20:21:27.433Z,54.57
2023-05-13T20:23:54.583Z,54.57
2023-05-13T20:26:22.051Z,55.24
2023-05-13T20:28:51.470Z,55.17
2023-05-13T20:31:18.740Z,55.74
2023-05-13T20:33:46.121Z,56.74
2023-05-13T20:36:13.150Z,57.43
2023-05-13T20:38:41.901Z,57.82
2023-05-13T20:41:09.328Z,58.19
2023-05-13T20:43:39.176Z,57.61
2023-05-13T20:46:09.993Z,56.07
2023-05-13T20:48:37.056Z,55.39
2023-05-13T20:51:05.173Z,55.58
2023-05-13T20:53:33.816Z,56.05
2023-05-13T20:56:02.861Z,56.68
2023-05-13T20:58:30.725Z,57.04
2023-05-13T21:00:57.821Z,57.51
2023-05-13T21:03:25.450Z,57.94
2023-05-13T21:05:52.434Z,58.40
2023-05-13T21:08:19.447Z,59.10
2023-05-13T21:10:46.317Z,59.08
2023-05-13T21:13:13.550Z,57.55
2023-05-13T21:15:40.599Z,56.72
2023-05-13T21:18:07.645Z,56.81
2023-05-13T21:20:34.735Z,57.17
2023-05-13T21:23:01.958Z,57.34
2023-05-13T21:25:29.005Z,58.02
2023-05-13T21:27:55.965Z,58.40
2023-05-13T21:30:23.124Z,58.64
2023-05-13T21:32:50.713Z,58.98
2023-05-13T21:35:18.397Z,58.52
2023-05-13T21:37:47.363Z,58.12
2023-05-13T21:40:14.940Z,59.75
2023-05-13T21:42:42.067Z,59.75
2023-05-13T21:45:09.473Z,58.32
2023-05-13T21:47:36.924Z,57.51
2023-05-13T21:50:06.923Z,57.77
2023-05-13T21:52:34.793Z,58.14
2023-05-13T21:55:02.125Z,58.49
2023-05-13T21:57:29.320Z,59.13
2023-05-13T21:59:56.384Z,59.26
2023-05-13T22:02:23.467Z,59.95
2023-05-13T22:04:51.089Z,60.51
2023-05-13T22:07:18.424Z,60.96
2023-05-13T22:09:46.046Z,60.61
2023-05-13T22:12:14.173Z,59.13
2023-05-13T22:14:41.713Z,58.39
2023-05-13T22:17:10.186Z,58.32
2023-05-13T22:19:38.058Z,58.74
2023-05-13T22:22:05.362Z,59.22
2023-05-13T22:24:33.353Z,59.75
2023-05-13T22:27:00.623Z,60.00
2023-05-13T22:29:28.382Z,60.50
2023-05-13T22:31:57.614Z,60.35
2023-05-13T22:34:26.043Z,60.52
2023-05-13T22:36:53.194Z,58.83
2023-05-13T22:39:20.650Z,57.87
2023-05-13T22:41:47.748Z,57.43
2023-05-13T22:44:14.818Z,57.62
2023-05-13T22:46:41.893Z,57.67
2023-05-13T22:49:10.435Z,59.19
2023-05-13T22:51:37.568Z,60.34
2023-05-13T22:54:04.644Z,61.07
2023-05-13T22:56:32.247Z,61.06
2023-05-13T22:58:59.301Z,59.86
2023-05-13T23:01:26.372Z,59.16
2023-05-13T23:03:53.500Z,59.31
2023-05-13T23:06:20.562Z,59.74
2023-05-13T23:08:48.074Z,60.29
2023-05-13T23:11:15.395Z,60.49
2023-05-13T23:13:42.555Z,61.13
2023-05-13T23:16:09.809Z,61.50
2023-05-13T23:18:36.998Z,61.58
2023-05-13T23:21:04.717Z,60.47
2023-05-13T23:23:32.977Z,59.61
2023-05-13T23:25:59.875Z,59.37
2023-05-13T23:28:26.937Z,59.39
2023-05-13T23:30:54.402Z,59.98
2023-05-13T23:33:21.930Z,60.31
2023-05-13T23:35:55.568Z,60.85
2023-05-13T23:38:23.282Z,61.69
2023-05-13T23:40:50.329Z,61.65
2023-05-13T23:43:17.668Z,60.52
2023-05-13T23:45:45.887Z,59.62
2023-05-13T23:48:13.170Z,59.66
2023-05-13T23:50:41.463Z,60.00
2023-05-13T23:53:08.722Z,60.57
2023-05-13T23:55:35.948Z,61.18
2023-05-13T23:58:02.954Z,61.22
